Time;durP1;ratioP1;P1;durP2;ratioP2;P2;SDS_P1;SDS_P2;PMS_P1;PMS_P2;Temp;Humidity;BMP_temperature;BMP_pressure;BME280_temperature;BME280_humidity;BME280_pressure;Samples;Min_cycle;Max_cycle;Signal;HPM_P1;HPM_P2
2023/03/24 00:00:01;;;;;;;0.7;0.7;;;;;;;12.2;100.0;99660;;;;
2023/03/24 00:01:01;;;;;;;0.7;0.7;;;;;;;12.1;100.0;99660;;;;
2023/03/24 00:02:00;;;;;;;0.7;0.7;;;;;;;12.1;100.0;99660;;;;
2023/03/24 00:03:01;;;;;;;0.7;0.7;;;;;;;12.1;100.0;99660;;;;
2023/03/24 00:04:00;;;;;;;0.7;0.7;;;;;;;12.1;100.0;99660;;;;
2023/03/24 00:05:00;;;;;;;0.7;0.7;;;;;;;12.0;100.0;99650;;;;
2023/03/24 00:06:01;;;;;;;0.7;0.7;;;;;;;12.0;100.0;99650;;;;
2023/03/24 00:07:02;;;;;;;0.7;0.7;;;;;;;12.0;100.0;99660;;;;
2023/03/24 00:08:02;;;;;;;0.7;0.7;;;;;;;12.0;100.0;99660;;;;
2023/03/24 00:09:02;;;;;;;0.7;0.7;;;;;;;12.0;100.0;99650;;;;
2023/03/24 00:10:00;;;;;;;0.7;0.7;;;;;;;12.0;100.0;99650;;;;
2023/03/24 00:11:03;;;;;;;0.7;0.7;;;;;;;12.0;100.0;99640;;;;
2023/03/24 00:12:00;;;;;;;0.7;0.7;;;;;;;12.0;100.0;99640;;;;
2023/03/24 00:13:00;;;;;;;0.7;0.7;;;;;;;11.9;100.0;99630;;;;
2023/03/24 00:14:01;;;;;;;0.7;0.7;;;;;;;11.9;100.0;99630;;;;
2023/03/24 00:15:01;;;;;;;0.7;0.7;;;;;;;11.9;100.0;99630;;;;
2023/03/24 00:16:01;;;;;;;0.7;0.7;;;;;;;11.9;100.0;99630;;;;
2023/03/24 00:17:00;;;;;;;0.7;0.7;;;;;;;12.0;100.0;99630;;;;
2023/03/24 00:18:00;;;;;;;0.7;0.7;;;;;;;12.0;100.0;99630;;;;
2023/03/24 00:19:00;;;;;;;0.7;0.7;;;;;;;12.1;100.0;99630;;;;
2023/03/24 00:20:01;;;;;;;0.7;0.7;;;;;;;12.1;100.0;99630;;;;
2023/03/24 00:21:00;;;;;;;0.7;0.7;;;;;;;12.1;100.0;99620;;;;
2023/03/24 00:22:01;;;;;;;0.7;0.7;;;;;;;12.1;100.0;99620;;;;
2023/03/24 00:23:00;;;;;;;0.7;0.7;;;;;;;12.1;100.0;99620;;;;
2023/03/24 00:24:00;;;;;;;0.7;0.7;;;;;;;12.1;100.0;99620;;;;
2023/03/24 00:25:02;;;;;;;0.7;0.7;;;;;;;12.1;100.0;99610;;;;
2023/03/24 00:26:03;;;;;;;0.6;0.6;;;;;;;12.1;100.0;99610;;;;
2023/03/24 00:27:02;;;;;;;0.6;0.6;;;;;;;12.0;100.0;99610;;;;
2023/03/24 00:28:01;;;;;;;0.6;0.6;;;;;;;12.0;100.0;99610;;;;
2023/03/24 00:29:00;;;;;;;0.6;0.6;;;;;;;12.1;100.0;99610;;;;
2023/03/24 00:30:02;;;;;;;0.6;0.6;;;;;;;12.1;100.0;99610;;;;
2023/03/24 00:31:00;;;;;;;0.6;0.6;;;;;;;12.1;100.0;99610;;;;
2023/03/24 00:32:00;;;;;;;0.6;0.6;;;;;;;12.1;100.0;99610;;;;
2023/03/24 00:33:00;;;;;;;0.6;0.6;;;;;;;12.1;100.0;99610;;;;
2023/03/24 00:34:01;;;;;;;0.6;0.6;;;;;;;12.1;100.0;99610;;;;
2023/03/24 00:35:00;;;;;;;0.6;0.6;;;;;;;12.1;100.0;99610;;;;
2023/03/24 00:36:02;;;;;;;0.6;0.6;;;;;;;12.1;100.0;99610;;;;
2023/03/24 00:37:00;;;;;;;0.6;0.6;;;;;;;12.1;100.0;99610;;;;
2023/03/24 00:38:00;;;;;;;0.6;0.6;;;;;;;12.1;100.0;99610;;;;
2023/03/24 00:39:00;;;;;;;0.6;0.6;;;;;;;12.1;100.0;99610;;;;
2023/03/24 00:40:00;;;;;;;0.6;0.6;;;;;;;12.1;100.0;99610;;;;
2023/03/24 00:41:00;;;;;;;0.6;0.6;;;;;;;12.2;100.0;99600;;;;
2023/03/24 00:42:00;;;;;;;0.6;0.6;;;;;;;12.2;100.0;99600;;;;
2023/03/24 00:43:00;;;;;;;0.6;0.6;;;;;;;12.1;100.0;99610;;;;
2023/03/24 00:44:02;;;;;;;0.6;0.6;;;;;;;12.1;100.0;99610;;;;
2023/03/24 00:45:02;;;;;;;0.6;0.6;;;;;;;12.2;100.0;99600;;;;
2023/03/24 00:46:01;;;;;;;0.6;0.6;;;;;;;12.2;100.0;99600;;;;
2023/03/24 00:47:00;;;;;;;0.6;0.6;;;;;;;12.1;100.0;99600;;;;
2023/03/24 00:48:00;;;;;;;0.6;0.6;;;;;;;12.1;100.0;99600;;;;
2023/03/24 00:49:01;;;;;;;0.6;0.6;;;;;;;12.2;100.0;99590;;;;
2023/03/24 00:50:00;;;;;;;0.6;0.6;;;;;;;12.2;100.0;99590;;;;
2023/03/24 00:51:01;;;;;;;0.6;0.6;;;;;;;12.3;100.0;99590;;;;
2023/03/24 00:52:00;;;;;;;0.6;0.6;;;;;;;12.3;100.0;99590;;;;
2023/03/24 00:53:00;;;;;;;0.6;0.6;;;;;;;12.3;100.0;99580;;;;
2023/03/24 00:54:00;;;;;;;0.6;0.6;;;;;;;12.3;100.0;99580;;;;
2023/03/24 00:55:01;;;;;;;0.6;0.6;;;;;;;12.3;100.0;99580;;;;
2023/03/24 00:56:00;;;;;;;0.6;0.6;;;;;;;12.3;100.0;99580;;;;
2023/03/24 00:57:01;;;;;;;0.6;0.6;;;;;;;12.3;100.0;99580;;;;
2023/03/24 00:58:01;;;;;;;0.6;0.6;;;;;;;12.3;100.0;99580;;;;
2023/03/24 00:59:00;;;;;;;0.6;0.6;;;;;;;12.3;100.0;99580;;;;
2023/03/24 01:00:09;;;;;;;0.6;0.6;;;;;;;12.3;100.0;99580;;;;
2023/03/24 01:01:00;;;;;;;0.6;0.6;;;;;;;12.2;100.0;99580;;;;
2023/03/24 01:02:00;;;;;;;0.6;0.6;;;;;;;12.2;100.0;99580;;;;
2023/03/24 01:03:02;;;;;;;0.6;0.6;;;;;;;12.3;100.0;99570;;;;
2023/03/24 01:04:01;;;;;;;0.6;0.6;;;;;;;12.3;100.0;99570;;;;
2023/03/24 01:05:01;;;;;;;0.6;0.6;;;;;;;12.3;100.0;99560;;;;
2023/03/24 01:06:03;;;;;;;0.5;0.5;;;;;;;12.3;100.0;99560;;;;
2023/03/24 01:07:00;;;;;;;0.5;0.5;;;;;;;12.4;100.0;99560;;;;
2023/03/24 01:08:03;;;;;;;0.5;0.5;;;;;;;12.4;100.0;99560;;;;
2023/03/24 01:09:04;;;;;;;0.5;0.5;;;;;;;12.3;100.0;99550;;;;
2023/03/24 01:10:01;;;;;;;0.5;0.5;;;;;;;12.3;100.0;99550;;;;
2023/03/24 01:11:00;;;;;;;0.5;0.5;;;;;;;12.5;100.0;99550;;;;
2023/03/24 01:12:00;;;;;;;0.5;0.5;;;;;;;12.5;100.0;99550;;;;
2023/03/24 01:13:01;;;;;;;0.5;0.5;;;;;;;12.4;100.0;99560;;;;
2023/03/24 01:14:01;;;;;;;0.5;0.5;;;;;;;12.4;100.0;99560;;;;
2023/03/24 01:15:01;;;;;;;0.5;0.5;;;;;;;12.3;100.0;99550;;;;
2023/03/24 01:16:00;;;;;;;0.5;0.5;;;;;;;12.3;100.0;99550;;;;
2023/03/24 01:17:00;;;;;;;0.5;0.5;;;;;;;12.4;100.0;99540;;;;
2023/03/24 01:18:01;;;;;;;0.5;0.5;;;;;;;12.4;100.0;99540;;;;
2023/03/24 01:19:00;;;;;;;0.5;0.5;;;;;;;12.4;100.0;99550;;;;
2023/03/24 01:20:06;;;;;;;0.5;0.5;;;;;;;12.4;100.0;99550;;;;
2023/03/24 01:21:00;;;;;;;0.5;0.5;;;;;;;12.4;100.0;99540;;;;
2023/03/24 01:22:01;;;;;;;0.5;0.5;;;;;;;12.4;100.0;99540;;;;
2023/03/24 01:23:00;;;;;;;0.5;0.5;;;;;;;12.4;100.0;99550;;;;
2023/03/24 01:24:00;;;;;;;0.5;0.5;;;;;;;12.4;100.0;99550;;;;
2023/03/24 01:25:00;;;;;;;0.5;0.5;;;;;;;12.5;100.0;99540;;;;
2023/03/24 01:26:04;;;;;;;0.5;0.5;;;;;;;12.5;100.0;99540;;;;
2023/03/24 01:27:00;;;;;;;0.5;0.5;;;;;;;12.4;100.0;99550;;;;
2023/03/24 01:28:00;;;;;;;0.5;0.5;;;;;;;12.4;100.0;99550;;;;
2023/03/24 01:29:00;;;;;;;0.5;0.5;;;;;;;12.4;100.0;99540;;;;
2023/03/24 01:30:00;;;;;;;0.5;0.5;;;;;;;12.4;100.0;99540;;;;
2023/03/24 01:31:00;;;;;;;0.5;0.5;;;;;;;12.5;100.0;99530;;;;
2023/03/24 01:32:00;;;;;;;0.5;0.5;;;;;;;12.5;100.0;99530;;;;
2023/03/24 01:33:00;;;;;;;0.5;0.5;;;;;;;12.4;100.0;99530;;;;
2023/03/24 01:34:00;;;;;;;0.5;0.5;;;;;;;12.4;100.0;99530;;;;
2023/03/24 01:35:00;;;;;;;0.5;0.5;;;;;;;12.4;100.0;99530;;;;
2023/03/24 01:36:00;;;;;;;0.5;0.5;;;;;;;12.4;100.0;99530;;;;
2023/03/24 01:37:00;;;;;;;0.5;0.5;;;;;;;12.4;100.0;99530;;;;
2023/03/24 01:38:03;;;;;;;0.5;0.5;;;;;;;12.4;100.0;99530;;;;
2023/03/24 01:39:00;;;;;;;0.5;0.5;;;;;;;12.4;100.0;99530;;;;
2023/03/24 01:40:01;;;;;;;0.5;0.5;;;;;;;12.4;100.0;99530;;;;
2023/03/24 01:41:00;;;;;;;0.5;0.5;;;;;;;12.4;100.0;99530;;;;
2023/03/24 01:42:00;;;;;;;0.5;0.5;;;;;;;12.4;100.0;99530;;;;
2023/03/24 01:43:00;;;;;;;0.5;0.5;;;;;;;12.3;100.0;99530;;;;
2023/03/24 01:44:00;;;;;;;0.5;0.5;;;;;;;12.3;100.0;99530;;;;
2023/03/24 01:45:01;;;;;;;0.7;0.7;;;;;;;12.3;100.0;99520;;;;
2023/03/24 01:46:10;;;;;;;0.7;0.7;;;;;;;12.3;100.0;99520;;;;
2023/03/24 01:47:00;;;;;;;0.7;0.7;;;;;;;12.2;100.0;99520;;;;
2023/03/24 01:48:01;;;;;;;0.7;0.7;;;;;;;12.2;100.0;99520;;;;
2023/03/24 01:49:01;;;;;;;0.7;0.7;;;;;;;12.3;100.0;99520;;;;
2023/03/24 01:50:01;;;;;;;0.7;0.7;;;;;;;12.3;100.0;99520;;;;
2023/03/24 01:51:02;;;;;;;0.7;0.7;;;;;;;12.2;100.0;99510;;;;
2023/03/24 01:52:02;;;;;;;0.7;0.7;;;;;;;12.2;100.0;99510;;;;
2023/03/24 01:53:00;;;;;;;0.7;0.7;;;;;;;12.2;100.0;99520;;;;
2023/03/24 01:54:02;;;;;;;0.7;0.7;;;;;;;12.2;100.0;99520;;;;
2023/03/24 01:55:06;;;;;;;0.7;0.7;;;;;;;12.2;100.0;99520;;;;
2023/03/24 01:56:01;;;;;;;0.7;0.7;;;;;;;12.2;100.0;99520;;;;
2023/03/24 01:57:02;;;;;;;0.7;0.7;;;;;;;12.3;100.0;99510;;;;
2023/03/24 01:58:01;;;;;;;0.7;0.7;;;;;;;12.3;100.0;99510;;;;
2023/03/24 01:59:02;;;;;;;0.7;0.7;;;;;;;12.3;100.0;99510;;;;
2023/03/24 02:00:03;;;;;;;0.7;0.7;;;;;;;12.3;100.0;99510;;;;
2023/03/24 02:01:01;;;;;;;0.7;0.7;;;;;;;12.4;100.0;99500;;;;
2023/03/24 02:02:02;;;;;;;0.7;0.7;;;;;;;12.4;100.0;99500;;;;
2023/03/24 02:03:05;;;;;;;0.7;0.7;;;;;;;12.4;100.0;99500;;;;
2023/03/24 02:04:03;;;;;;;0.7;0.7;;;;;;;12.4;100.0;99500;;;;
2023/03/24 02:05:02;;;;;;;0.5;0.5;;;;;;;12.3;100.0;99500;;;;
2023/03/24 02:06:01;;;;;;;0.5;0.5;;;;;;;12.3;100.0;99500;;;;
2023/03/24 02:07:04;;;;;;;0.5;0.5;;;;;;;12.4;100.0;99500;;;;
2023/03/24 02:08:03;;;;;;;0.5;0.5;;;;;;;12.4;100.0;99500;;;;
2023/03/24 02:09:00;;;;;;;0.5;0.5;;;;;;;12.3;100.0;99500;;;;
2023/03/24 02:10:02;;;;;;;0.5;0.5;;;;;;;12.3;100.0;99500;;;;
2023/03/24 02:11:01;;;;;;;0.5;0.5;;;;;;;12.3;100.0;99490;;;;
2023/03/24 02:12:01;;;;;;;0.5;0.5;;;;;;;12.3;100.0;99490;;;;
2023/03/24 02:13:00;;;;;;;0.5;0.5;;;;;;;12.4;100.0;99500;;;;
2023/03/24 02:14:00;;;;;;;0.5;0.5;;;;;;;12.4;100.0;99500;;;;
2023/03/24 02:15:01;;;;;;;0.5;0.5;;;;;;;12.4;100.0;99480;;;;
2023/03/24 02:16:03;;;;;;;0.5;0.5;;;;;;;12.4;100.0;99480;;;;
2023/03/24 02:17:09;;;;;;;0.5;0.5;;;;;;;12.3;100.0;99490;;;;
2023/03/24 02:18:10;;;;;;;0.5;0.5;;;;;;;12.3;100.0;99490;;;;
2023/03/24 02:19:03;;;;;;;0.5;0.5;;;;;;;12.3;100.0;99490;;;;
2023/03/24 02:20:11;;;;;;;0.5;0.5;;;;;;;12.3;100.0;99490;;;;
2023/03/24 02:21:10;;;;;;;0.5;0.5;;;;;;;12.3;100.0;99490;;;;
2023/03/24 02:22:00;;;;;;;0.5;0.5;;;;;;;12.3;100.0;99490;;;;
2023/03/24 02:23:01;;;;;;;0.5;0.5;;;;;;;12.3;100.0;99480;;;;
2023/03/24 02:24:10;;;;;;;0.5;0.5;;;;;;;12.3;100.0;99480;;;;
2023/03/24 02:25:10;;;;;;;0.6;0.6;;;;;;;12.4;100.0;99490;;;;
2023/03/24 02:26:10;;;;;;;0.6;0.6;;;;;;;12.4;100.0;99490;;;;
2023/03/24 02:27:08;;;;;;;0.6;0.6;;;;;;;12.4;100.0;99490;;;;
2023/03/24 02:28:01;;;;;;;0.6;0.6;;;;;;;12.4;100.0;99490;;;;
2023/03/24 02:29:09;;;;;;;0.6;0.6;;;;;;;12.3;100.0;99490;;;;
2023/03/24 02:30:10;;;;;;;0.6;0.6;;;;;;;12.3;100.0;99490;;;;
2023/03/24 02:31:02;;;;;;;0.6;0.6;;;;;;;12.4;100.0;99490;;;;
2023/03/24 02:32:01;;;;;;;0.6;0.6;;;;;;;12.4;100.0;99490;;;;
2023/03/24 02:33:01;;;;;;;0.6;0.6;;;;;;;12.4;100.0;99490;;;;
2023/03/24 02:34:10;;;;;;;0.6;0.6;;;;;;;12.4;100.0;99490;;;;
2023/03/24 02:35:10;;;;;;;0.6;0.6;;;;;;;12.4;100.0;99500;;;;
2023/03/24 02:36:00;;;;;;;0.6;0.6;;;;;;;12.4;100.0;99500;;;;
2023/03/24 02:37:11;;;;;;;0.6;0.6;;;;;;;12.3;100.0;99500;;;;
2023/03/24 02:38:02;;;;;;;0.6;0.6;;;;;;;12.3;100.0;99500;;;;
2023/03/24 02:39:08;;;;;;;0.6;0.6;;;;;;;12.3;100.0;99490;;;;
2023/03/24 02:40:07;;;;;;;0.6;0.6;;;;;;;12.3;100.0;99490;;;;
2023/03/24 02:41:00;;;;;;;0.6;0.6;;;;;;;12.3;100.0;99500;;;;
2023/03/24 02:42:10;;;;;;;0.6;0.6;;;;;;;12.3;100.0;99500;;;;
2023/03/24 02:43:10;;;;;;;0.6;0.6;;;;;;;12.2;100.0;99500;;;;
2023/03/24 02:44:01;;;;;;;0.6;0.6;;;;;;;12.2;100.0;99500;;;;
2023/03/24 02:45:04;;;;;;;0.7;0.7;;;;;;;12.2;100.0;99500;;;;
2023/03/24 02:46:12;;;;;;;0.7;0.7;;;;;;;12.2;100.0;99500;;;;
2023/03/24 02:47:04;;;;;;;0.7;0.7;;;;;;;12.4;100.0;99500;;;;
2023/03/24 02:48:00;;;;;;;0.7;0.7;;;;;;;12.4;100.0;99500;;;;
2023/03/24 02:49:10;;;;;;;0.7;0.7;;;;;;;12.4;100.0;99490;;;;
2023/03/24 02:50:10;;;;;;;0.7;0.7;;;;;;;12.4;100.0;99490;;;;
2023/03/24 02:51:10;;;;;;;0.7;0.7;;;;;;;12.4;100.0;99490;;;;
2023/03/24 02:52:00;;;;;;;0.7;0.7;;;;;;;12.4;100.0;99490;;;;
2023/03/24 02:53:07;;;;;;;0.7;0.7;;;;;;;12.4;100.0;99480;;;;
2023/03/24 02:54:10;;;;;;;0.7;0.7;;;;;;;12.4;100.0;99480;;;;
2023/03/24 02:55:04;;;;;;;0.7;0.7;;;;;;;12.3;100.0;99480;;;;
2023/03/24 02:56:09;;;;;;;0.7;0.7;;;;;;;12.3;100.0;99480;;;;
2023/03/24 02:57:08;;;;;;;0.7;0.7;;;;;;;12.2;100.0;99480;;;;
2023/03/24 02:58:02;;;;;;;0.7;0.7;;;;;;;12.2;100.0;99480;;;;
2023/03/24 02:59:03;;;;;;;0.7;0.7;;;;;;;12.3;100.0;99510;;;;
2023/03/24 03:00:08;;;;;;;0.7;0.7;;;;;;;12.3;100.0;99510;;;;
2023/03/24 03:01:05;;;;;;;0.7;0.7;;;;;;;12.3;100.0;99510;;;;
2023/03/24 03:02:05;;;;;;;0.7;0.7;;;;;;;12.3;100.0;99510;;;;
2023/03/24 03:03:10;;;;;;;0.7;0.7;;;;;;;12.4;100.0;99510;;;;
2023/03/24 03:04:04;;;;;;;0.7;0.7;;;;;;;12.4;100.0;99510;;;;
2023/03/24 03:05:04;;;;;;;0.6;0.6;;;;;;;12.3;100.0;99500;;;;
2023/03/24 03:06:04;;;;;;;0.6;0.6;;;;;;;12.3;100.0;99500;;;;
2023/03/24 03:07:05;;;;;;;0.6;0.6;;;;;;;12.2;100.0;99510;;;;
2023/03/24 03:08:02;;;;;;;0.6;0.6;;;;;;;12.2;100.0;99510;;;;
2023/03/24 03:09:03;;;;;;;0.6;0.6;;;;;;;12.3;100.0;99510;;;;
2023/03/24 03:10:04;;;;;;;0.6;0.6;;;;;;;12.3;100.0;99510;;;;
2023/03/24 03:11:02;;;;;;;0.6;0.6;;;;;;;12.3;100.0;99520;;;;
2023/03/24 03:12:01;;;;;;;0.6;0.6;;;;;;;12.3;100.0;99520;;;;
2023/03/24 03:13:04;;;;;;;0.6;0.6;;;;;;;12.3;100.0;99520;;;;
2023/03/24 03:14:02;;;;;;;0.6;0.6;;;;;;;12.3;100.0;99520;;;;
2023/03/24 03:15:07;;;;;;;0.6;0.6;;;;;;;12.3;100.0;99520;;;;
2023/03/24 03:16:04;;;;;;;0.6;0.6;;;;;;;12.3;100.0;99520;;;;
2023/03/24 03:17:05;;;;;;;0.6;0.6;;;;;;;12.2;100.0;99530;;;;
2023/03/24 03:18:10;;;;;;;0.6;0.6;;;;;;;12.2;100.0;99530;;;;
2023/03/24 03:19:02;;;;;;;0.6;0.6;;;;;;;12.2;100.0;99550;;;;
2023/03/24 03:20:07;;;;;;;0.6;0.6;;;;;;;12.2;100.0;99550;;;;
2023/03/24 03:21:03;;;;;;;0.6;0.6;;;;;;;12.1;100.0;99540;;;;
2023/03/24 03:22:03;;;;;;;0.6;0.6;;;;;;;12.1;100.0;99540;;;;
2023/03/24 03:23:04;;;;;;;0.6;0.6;;;;;;;12.0;100.0;99550;;;;
2023/03/24 03:24:03;;;;;;;0.6;0.6;;;;;;;12.0;100.0;99550;;;;
2023/03/24 03:25:02;;;;;;;0.7;0.7;;;;;;;11.9;100.0;99560;;;;
2023/03/24 03:26:03;;;;;;;0.7;0.7;;;;;;;11.9;100.0;99560;;;;
2023/03/24 03:27:02;;;;;;;0.7;0.7;;;;;;;11.9;100.0;99560;;;;
2023/03/24 03:28:02;;;;;;;0.7;0.7;;;;;;;11.9;100.0;99560;;;;
2023/03/24 03:29:03;;;;;;;0.7;0.7;;;;;;;11.8;100.0;99580;;;;
2023/03/24 03:30:04;;;;;;;0.7;0.7;;;;;;;11.8;100.0;99580;;;;
2023/03/24 03:31:04;;;;;;;0.7;0.7;;;;;;;11.6;100.0;99580;;;;
2023/03/24 03:32:06;;;;;;;0.7;0.7;;;;;;;11.6;100.0;99580;;;;
2023/03/24 03:33:10;;;;;;;0.7;0.7;;;;;;;11.5;100.0;99590;;;;
2023/03/24 03:34:09;;;;;;;0.7;0.7;;;;;;;11.5;100.0;99590;;;;
2023/03/24 03:35:05;;;;;;;0.7;0.7;;;;;;;11.5;100.0;99580;;;;
2023/03/24 03:36:05;;;;;;;0.7;0.7;;;;;;;11.5;100.0;99580;;;;
2023/03/24 03:37:10;;;;;;;0.7;0.7;;;;;;;11.4;100.0;99580;;;;
2023/03/24 03:38:10;;;;;;;0.7;0.7;;;;;;;11.4;100.0;99580;;;;
2023/03/24 03:39:10;;;;;;;0.7;0.7;;;;;;;11.3;100.0;99600;;;;
2023/03/24 03:40:04;;;;;;;0.7;0.7;;;;;;;11.3;100.0;99600;;;;
2023/03/24 03:41:02;;;;;;;0.7;0.7;;;;;;;11.2;100.0;99600;;;;
2023/03/24 03:42:00;;;;;;;0.7;0.7;;;;;;;11.2;100.0;99600;;;;
2023/03/24 03:43:01;;;;;;;0.7;0.7;;;;;;;11.2;100.0;99620;;;;
2023/03/24 03:44:00;;;;;;;0.7;0.7;;;;;;;11.2;100.0;99620;;;;
2023/03/24 03:45:00;;;;;;;0.8;0.8;;;;;;;11.0;100.0;99640;;;;
2023/03/24 03:46:01;;;;;;;0.8;0.8;;;;;;;11.0;100.0;99640;;;;
2023/03/24 03:47:00;;;;;;;0.8;0.8;;;;;;;10.8;100.0;99650;;;;
2023/03/24 03:48:00;;;;;;;0.8;0.8;;;;;;;10.8;100.0;99650;;;;
2023/03/24 03:49:00;;;;;;;0.8;0.8;;;;;;;10.6;100.0;99650;;;;
2023/03/24 03:50:00;;;;;;;0.8;0.8;;;;;;;10.6;100.0;99650;;;;
2023/03/24 03:51:10;;;;;;;0.8;0.8;;;;;;;10.6;100.0;99650;;;;
2023/03/24 03:52:00;;;;;;;0.8;0.8;;;;;;;10.6;100.0;99650;;;;
2023/03/24 03:53:00;;;;;;;0.8;0.8;;;;;;;10.6;100.0;99640;;;;
2023/03/24 03:54:02;;;;;;;0.8;0.8;;;;;;;10.6;100.0;99640;;;;
2023/03/24 03:55:01;;;;;;;0.8;0.8;;;;;;;10.6;100.0;99650;;;;
2023/03/24 03:56:01;;;;;;;0.8;0.8;;;;;;;10.6;100.0;99650;;;;
2023/03/24 03:57:00;;;;;;;0.8;0.8;;;;;;;10.5;100.0;99660;;;;
2023/03/24 03:58:01;;;;;;;0.8;0.8;;;;;;;10.5;100.0;99660;;;;
2023/03/24 03:59:02;;;;;;;0.8;0.8;;;;;;;10.4;100.0;99660;;;;
2023/03/24 04:00:10;;;;;;;0.8;0.8;;;;;;;10.4;100.0;99660;;;;
2023/03/24 04:01:02;;;;;;;0.8;0.8;;;;;;;10.6;100.0;99660;;;;
2023/03/24 04:02:07;;;;;;;0.8;0.8;;;;;;;10.6;100.0;99660;;;;
2023/03/24 04:03:10;;;;;;;0.8;0.8;;;;;;;10.4;100.0;99660;;;;
2023/03/24 04:04:01;;;;;;;0.8;0.8;;;;;;;10.4;100.0;99660;;;;
2023/03/24 04:05:09;;;;;;;0.8;0.8;;;;;;;10.4;100.0;99660;;;;
2023/03/24 04:06:02;;;;;;;0.8;0.8;;;;;;;10.4;100.0;99660;;;;
2023/03/24 04:07:10;;;;;;;0.8;0.8;;;;;;;10.4;100.0;99660;;;;
2023/03/24 04:08:06;;;;;;;0.8;0.8;;;;;;;10.4;100.0;99660;;;;
2023/03/24 04:09:08;;;;;;;0.8;0.8;;;;;;;10.4;100.0;99670;;;;
2023/03/24 04:10:01;;;;;;;0.8;0.8;;;;;;;10.4;100.0;99670;;;;
2023/03/24 04:11:10;;;;;;;0.8;0.8;;;;;;;10.4;100.0;99670;;;;
2023/03/24 04:12:08;;;;;;;0.8;0.8;;;;;;;10.4;100.0;99670;;;;
2023/03/24 04:13:06;;;;;;;0.8;0.8;;;;;;;10.3;100.0;99670;;;;
2023/03/24 04:14:01;;;;;;;0.8;0.8;;;;;;;10.3;100.0;99670;;;;
2023/03/24 04:15:10;;;;;;;0.8;0.8;;;;;;;10.3;100.0;99680;;;;
2023/03/24 04:16:10;;;;;;;0.8;0.8;;;;;;;10.3;100.0;99680;;;;
2023/03/24 04:17:10;;;;;;;0.8;0.8;;;;;;;10.2;100.0;99690;;;;
2023/03/24 04:18:10;;;;;;;0.8;0.8;;;;;;;10.2;100.0;99690;;;;
2023/03/24 04:19:10;;;;;;;0.8;0.8;;;;;;;10.2;100.0;99690;;;;
2023/03/24 04:20:11;;;;;;;0.8;0.8;;;;;;;10.2;100.0;99690;;;;
2023/03/24 04:21:11;;;;;;;0.8;0.8;;;;;;;10.2;100.0;99690;;;;
2023/03/24 04:22:05;;;;;;;0.8;0.8;;;;;;;10.2;100.0;99690;;;;
2023/03/24 04:23:01;;;;;;;0.8;0.8;;;;;;;10.2;100.0;99700;;;;
2023/03/24 04:24:01;;;;;;;0.8;0.8;;;;;;;10.2;100.0;99700;;;;
2023/03/24 04:25:10;;;;;;;0.7;0.7;;;;;;;10.2;100.0;99700;;;;
2023/03/24 04:26:10;;;;;;;0.7;0.7;;;;;;;10.2;100.0;99700;;;;
2023/03/24 04:27:10;;;;;;;0.7;0.7;;;;;;;10.2;100.0;99710;;;;
2023/03/24 04:28:08;;;;;;;0.7;0.7;;;;;;;10.2;100.0;99710;;;;
2023/03/24 04:29:10;;;;;;;0.7;0.7;;;;;;;10.2;100.0;99720;;;;
2023/03/24 04:30:10;;;;;;;0.7;0.7;;;;;;;10.2;100.0;99720;;;;
2023/03/24 04:31:06;;;;;;;0.7;0.7;;;;;;;10.2;100.0;99730;;;;
2023/03/24 04:32:03;;;;;;;0.7;0.7;;;;;;;10.2;100.0;99730;;;;
2023/03/24 04:33:04;;;;;;;0.7;0.7;;;;;;;10.2;100.0;99730;;;;
2023/03/24 04:34:08;;;;;;;0.7;0.7;;;;;;;10.2;100.0;99730;;;;
2023/03/24 04:35:05;;;;;;;0.7;0.7;;;;;;;10.2;100.0;99730;;;;
2023/03/24 04:36:05;;;;;;;0.7;0.7;;;;;;;10.2;100.0;99730;;;;
2023/03/24 04:37:04;;;;;;;0.7;0.7;;;;;;;10.1;100.0;99730;;;;
2023/03/24 04:38:04;;;;;;;0.7;0.7;;;;;;;10.1;100.0;99730;;;;
2023/03/24 04:39:01;;;;;;;0.7;0.7;;;;;;;10.0;100.0;99730;;;;
2023/03/24 04:40:04;;;;;;;0.7;0.7;;;;;;;10.0;100.0;99730;;;;
2023/03/24 04:41:01;;;;;;;0.7;0.7;;;;;;;10.0;100.0;99730;;;;
2023/03/24 04:42:01;;;;;;;0.7;0.7;;;;;;;10.0;100.0;99730;;;;
2023/03/24 04:43:03;;;;;;;0.7;0.7;;;;;;;10.0;100.0;99730;;;;
2023/03/24 04:44:00;;;;;;;0.7;0.7;;;;;;;10.0;100.0;99730;;;;
2023/03/24 04:45:01;;;;;;;0.9;0.9;;;;;;;10.1;100.0;99740;;;;
2023/03/24 04:46:01;;;;;;;0.9;0.9;;;;;;;10.1;100.0;99740;;;;
2023/03/24 04:47:01;;;;;;;0.9;0.9;;;;;;;10.0;100.0;99730;;;;
2023/03/24 04:48:03;;;;;;;0.9;0.9;;;;;;;10.0;100.0;99730;;;;
2023/03/24 04:49:01;;;;;;;0.9;0.9;;;;;;;10.0;100.0;99750;;;;
2023/03/24 04:50:01;;;;;;;0.9;0.9;;;;;;;10.0;100.0;99750;;;;
2023/03/24 04:51:02;;;;;;;0.9;0.9;;;;;;;10.0;100.0;99760;;;;
2023/03/24 04:52:00;;;;;;;0.9;0.9;;;;;;;10.0;100.0;99760;;;;
2023/03/24 04:53:00;;;;;;;0.9;0.9;;;;;;;9.9;100.0;99750;;;;
2023/03/24 04:54:00;;;;;;;0.9;0.9;;;;;;;9.9;100.0;99750;;;;
2023/03/24 04:55:01;;;;;;;0.9;0.9;;;;;;;10.0;100.0;99760;;;;
2023/03/24 04:56:10;;;;;;;0.9;0.9;;;;;;;10.0;100.0;99760;;;;
2023/03/24 04:57:00;;;;;;;0.9;0.9;;;;;;;9.9;100.0;99760;;;;
2023/03/24 04:58:00;;;;;;;0.9;0.9;;;;;;;9.9;100.0;99760;;;;
2023/03/24 04:59:00;;;;;;;0.9;0.9;;;;;;;9.9;100.0;99760;;;;
2023/03/24 05:00:00;;;;;;;0.9;0.9;;;;;;;9.9;100.0;99760;;;;
2023/03/24 05:01:02;;;;;;;0.9;0.9;;;;;;;10.0;100.0;99760;;;;
2023/03/24 05:02:00;;;;;;;0.9;0.9;;;;;;;10.0;100.0;99760;;;;
2023/03/24 05:03:00;;;;;;;0.9;0.9;;;;;;;10.0;100.0;99750;;;;
2023/03/24 05:04:00;;;;;;;0.9;0.9;;;;;;;10.0;100.0;99750;;;;
2023/03/24 05:05:00;;;;;;;0.9;0.9;;;;;;;10.0;100.0;99760;;;;
2023/03/24 05:06:00;;;;;;;0.9;0.9;;;;;;;10.0;100.0;99760;;;;
2023/03/24 05:07:00;;;;;;;0.9;0.9;;;;;;;10.0;100.0;99760;;;;
2023/03/24 05:08:00;;;;;;;0.9;0.9;;;;;;;10.0;100.0;99760;;;;
2023/03/24 05:09:00;;;;;;;0.9;0.9;;;;;;;10.1;100.0;99760;;;;
2023/03/24 05:10:00;;;;;;;0.9;0.9;;;;;;;10.1;100.0;99760;;;;
2023/03/24 05:11:00;;;;;;;0.9;0.9;;;;;;;10.0;100.0;99770;;;;
2023/03/24 05:12:02;;;;;;;0.9;0.9;;;;;;;10.0;100.0;99770;;;;
2023/03/24 05:13:00;;;;;;;0.9;0.9;;;;;;;9.9;100.0;99770;;;;
2023/03/24 05:14:00;;;;;;;0.9;0.9;;;;;;;9.9;100.0;99770;;;;
2023/03/24 05:15:00;;;;;;;0.9;0.9;;;;;;;9.9;100.0;99770;;;;
2023/03/24 05:16:00;;;;;;;0.9;0.9;;;;;;;9.9;100.0;99770;;;;
2023/03/24 05:17:00;;;;;;;0.9;0.9;;;;;;;9.9;100.0;99770;;;;
2023/03/24 05:18:00;;;;;;;0.9;0.9;;;;;;;9.9;100.0;99770;;;;
2023/03/24 05:19:00;;;;;;;0.9;0.9;;;;;;;9.8;100.0;99770;;;;
2023/03/24 05:20:00;;;;;;;0.9;0.9;;;;;;;9.8;100.0;99770;;;;
2023/03/24 05:21:00;;;;;;;0.9;0.9;;;;;;;9.8;100.0;99770;;;;
2023/03/24 05:22:00;;;;;;;0.9;0.9;;;;;;;9.8;100.0;99770;;;;
2023/03/24 05:23:00;;;;;;;0.9;0.9;;;;;;;9.8;100.0;99780;;;;
2023/03/24 05:24:00;;;;;;;0.9;0.9;;;;;;;9.8;100.0;99780;;;;
2023/03/24 05:25:00;;;;;;;1.1;1.1;;;;;;;9.9;100.0;99790;;;;
2023/03/24 05:26:00;;;;;;;1.1;1.1;;;;;;;9.9;100.0;99790;;;;
2023/03/24 05:27:00;;;;;;;1.1;1.1;;;;;;;9.9;100.0;99790;;;;
2023/03/24 05:28:00;;;;;;;1.1;1.1;;;;;;;9.9;100.0;99790;;;;
2023/03/24 05:29:00;;;;;;;1.1;1.1;;;;;;;9.7;100.0;99800;;;;
2023/03/24 05:30:00;;;;;;;1.1;1.1;;;;;;;9.7;100.0;99800;;;;
2023/03/24 05:31:00;;;;;;;1.1;1.1;;;;;;;9.8;100.0;99800;;;;
2023/03/24 05:32:00;;;;;;;1.1;1.1;;;;;;;9.8;100.0;99800;;;;
2023/03/24 05:33:00;;;;;;;1.1;1.1;;;;;;;9.8;100.0;99810;;;;
2023/03/24 05:34:00;;;;;;;1.1;1.1;;;;;;;9.8;100.0;99810;;;;
2023/03/24 05:35:00;;;;;;;1.1;1.1;;;;;;;9.8;100.0;99810;;;;
2023/03/24 05:36:00;;;;;;;1.1;1.1;;;;;;;9.8;100.0;99810;;;;
2023/03/24 05:37:00;;;;;;;1.1;1.1;;;;;;;9.8;100.0;99800;;;;
2023/03/24 05:38:00;;;;;;;1.1;1.1;;;;;;;9.8;100.0;99800;;;;
2023/03/24 05:39:00;;;;;;;1.1;1.1;;;;;;;9.7;100.0;99810;;;;
2023/03/24 05:40:00;;;;;;;1.1;1.1;;;;;;;9.7;100.0;99810;;;;
2023/03/24 05:41:00;;;;;;;1.1;1.1;;;;;;;9.7;100.0;99820;;;;
2023/03/24 05:42:00;;;;;;;1.1;1.1;;;;;;;9.7;100.0;99820;;;;
2023/03/24 05:43:00;;;;;;;1.1;1.1;;;;;;;9.7;100.0;99820;;;;
2023/03/24 05:44:00;;;;;;;1.1;1.1;;;;;;;9.7;100.0;99820;;;;
2023/03/24 05:45:00;;;;;;;0.9;0.9;;;;;;;9.7;100.0;99820;;;;
2023/03/24 05:46:00;;;;;;;0.9;0.9;;;;;;;9.7;100.0;99820;;;;
2023/03/24 05:47:00;;;;;;;0.9;0.9;;;;;;;9.7;100.0;99820;;;;
2023/03/24 05:48:00;;;;;;;0.9;0.9;;;;;;;9.7;100.0;99820;;;;
2023/03/24 05:49:00;;;;;;;0.9;0.9;;;;;;;9.6;100.0;99820;;;;
2023/03/24 05:50:00;;;;;;;0.9;0.9;;;;;;;9.6;100.0;99820;;;;
2023/03/24 05:51:00;;;;;;;0.9;0.9;;;;;;;9.6;100.0;99830;;;;
2023/03/24 05:52:00;;;;;;;0.9;0.9;;;;;;;9.6;100.0;99830;;;;
2023/03/24 05:53:00;;;;;;;0.9;0.9;;;;;;;9.7;100.0;99820;;;;
2023/03/24 05:54:00;;;;;;;0.9;0.9;;;;;;;9.7;100.0;99820;;;;
2023/03/24 05:55:00;;;;;;;0.9;0.9;;;;;;;9.6;100.0;99820;;;;
2023/03/24 05:56:00;;;;;;;0.9;0.9;;;;;;;9.6;100.0;99820;;;;
2023/03/24 05:57:00;;;;;;;0.9;0.9;;;;;;;9.6;100.0;99830;;;;
2023/03/24 05:58:01;;;;;;;0.9;0.9;;;;;;;9.6;100.0;99830;;;;
2023/03/24 05:59:00;;;;;;;0.9;0.9;;;;;;;9.6;100.0;99830;;;;
2023/03/24 06:00:00;;;;;;;0.9;0.9;;;;;;;9.6;100.0;99830;;;;
2023/03/24 06:01:05;;;;;;;0.9;0.9;;;;;;;9.7;100.0;99830;;;;
2023/03/24 06:02:00;;;;;;;0.9;0.9;;;;;;;9.7;100.0;99830;;;;
2023/03/24 06:03:00;;;;;;;0.9;0.9;;;;;;;9.7;100.0;99830;;;;
2023/03/24 06:04:00;;;;;;;0.9;0.9;;;;;;;9.7;100.0;99830;;;;
2023/03/24 06:05:00;;;;;;;0.9;0.9;;;;;;;9.6;100.0;99840;;;;
2023/03/24 06:06:00;;;;;;;0.9;0.9;;;;;;;9.6;100.0;99840;;;;
2023/03/24 06:07:01;;;;;;;0.9;0.9;;;;;;;9.7;100.0;99840;;;;
2023/03/24 06:08:00;;;;;;;0.9;0.9;;;;;;;9.7;100.0;99840;;;;
2023/03/24 06:09:01;;;;;;;0.9;0.9;;;;;;;9.7;100.0;99840;;;;
2023/03/24 06:10:03;;;;;;;0.9;0.9;;;;;;;9.7;100.0;99840;;;;
2023/03/24 06:11:01;;;;;;;0.9;0.9;;;;;;;9.8;100.0;99830;;;;
2023/03/24 06:12:00;;;;;;;0.9;0.9;;;;;;;9.8;100.0;99830;;;;
2023/03/24 06:13:00;;;;;;;0.9;0.9;;;;;;;9.6;100.0;99840;;;;
2023/03/24 06:14:00;;;;;;;0.9;0.9;;;;;;;9.6;100.0;99840;;;;
2023/03/24 06:15:00;;;;;;;0.9;0.9;;;;;;;9.6;100.0;99840;;;;
2023/03/24 06:16:03;;;;;;;0.9;0.9;;;;;;;9.6;100.0;99840;;;;
2023/03/24 06:17:00;;;;;;;0.9;0.9;;;;;;;9.7;100.0;99840;;;;
2023/03/24 06:18:00;;;;;;;0.9;0.9;;;;;;;9.7;100.0;99840;;;;
2023/03/24 06:19:00;;;;;;;0.9;0.9;;;;;;;9.7;100.0;99840;;;;
2023/03/24 06:20:03;;;;;;;0.9;0.9;;;;;;;9.7;100.0;99840;;;;
2023/03/24 06:21:00;;;;;;;0.9;0.9;;;;;;;9.6;100.0;99840;;;;
2023/03/24 06:22:01;;;;;;;0.9;0.9;;;;;;;9.6;100.0;99840;;;;
2023/03/24 06:23:01;;;;;;;0.9;0.9;;;;;;;9.6;100.0;99850;;;;
2023/03/24 06:24:00;;;;;;;0.9;1.1;;;;;;;9.6;100.0;99850;;;;
2023/03/24 06:25:01;;;;;;;1.1;1.1;;;;;;;9.7;100.0;99840;;;;
2023/03/24 06:26:00;;;;;;;1.1;1.1;;;;;;;9.7;100.0;99840;;;;
2023/03/24 06:27:01;;;;;;;1.1;1.1;;;;;;;9.7;100.0;99850;;;;
2023/03/24 06:28:05;;;;;;;1.1;1.1;;;;;;;9.7;100.0;99850;;;;
2023/03/24 06:29:00;;;;;;;1.1;1.1;;;;;;;9.8;100.0;99850;;;;
2023/03/24 06:30:00;;;;;;;1.1;1.1;;;;;;;9.8;100.0;99850;;;;